createdAt,value
2017-09-09T00:01:41.336Z,99253.61
2017-09-09T00:04:16.098Z,99249.27
2017-09-09T00:06:51.196Z,99245.87
2017-09-09T00:09:26.141Z,99243.14
2017-09-09T00:12:01.492Z,99241.12
2017-09-09T00:14:36.560Z,99240.75
2017-09-09T00:17:11.152Z,99240.77
2017-09-09T00:19:45.844Z,99234.91
2017-09-09T00:22:20.669Z,99231.09
2017-09-09T00:24:55.473Z,99217.25
2017-09-09T00:27:30.199Z,99219.10
2017-09-09T00:30:04.584Z,99217.58
2017-09-09T00:32:39.507Z,99216.59
2017-09-09T00:35:14.283Z,99214.04
2017-09-09T00:37:49.036Z,99214.78
2017-09-09T00:40:23.540Z,99210.23
2017-09-09T00:42:57.928Z,99211.34
2017-09-09T00:45:32.923Z,99205.86
2017-09-09T00:48:07.620Z,99189.83
2017-09-09T00:50:41.988Z,99189.39
2017-09-09T00:53:16.468Z,99192.23
2017-09-09T00:55:52.077Z,99218.48
2017-09-09T00:58:26.597Z,99207.62
2017-09-09T01:01:01.053Z,99203.99
2017-09-09T01:03:36.160Z,99204.00
2017-09-09T01:06:11.043Z,99202.20
2017-09-09T01:08:45.675Z,99214.59
2017-09-09T01:11:20.758Z,99221.50
2017-09-09T01:13:55.518Z,99219.61
2017-09-09T01:16:30.410Z,99212.39
2017-09-09T01:19:05.667Z,99217.70
2017-09-09T01:21:40.329Z,99207.73
2017-09-09T01:24:14.876Z,99202.07
2017-09-09T01:26:50.175Z,99203.05
2017-09-09T01:29:24.527Z,99198.91
2017-09-09T01:31:59.609Z,99194.96
2017-09-09T01:34:34.912Z,99200.89
2017-09-09T01:37:09.893Z,99195.31
2017-09-09T01:39:44.472Z,99203.56
2017-09-09T01:42:19.125Z,99196.92
2017-09-09T01:44:53.381Z,99188.83
2017-09-09T01:47:28.332Z,99189.17
2017-09-09T01:50:03.045Z,99189.56
2017-09-09T01:52:37.985Z,99183.69
2017-09-09T01:55:12.745Z,99180.02
2017-09-09T01:57:47.596Z,99176.82
2017-09-09T02:00:22.326Z,99175.34
2017-09-09T02:02:57.023Z,99180.20
2017-09-09T02:05:31.751Z,99188.41
2017-09-09T02:08:06.517Z,99185.26
2017-09-09T02:10:41.240Z,99188.27
2017-09-09T02:13:15.845Z,99179.13
2017-09-09T02:15:50.878Z,99171.78
2017-09-09T02:18:25.891Z,99170.52
2017-09-09T02:21:00.902Z,99163.66
2017-09-09T02:23:35.404Z,99158.64
2017-09-09T02:26:10.140Z,99160.23
2017-09-09T02:28:44.865Z,99151.20
2017-09-09T02:31:20.557Z,99151.34
2017-09-09T02:33:55.187Z,99146.70
2017-09-09T02:36:29.937Z,99135.89
2017-09-09T02:39:04.083Z,99136.77
2017-09-09T02:41:39.152Z,99128.05
2017-09-09T02:44:13.886Z,99127.83
2017-09-09T02:46:48.789Z,99127.84
2017-09-09T02:49:24.100Z,99122.86
2017-09-09T02:51:59.714Z,99134.63
2017-09-09T02:54:34.435Z,99134.72
2017-09-09T02:57:09.195Z,99125.98
2017-09-09T02:59:43.952Z,99121.61
2017-09-09T03:02:18.652Z,99126.90
2017-09-09T03:04:54.480Z,99118.47
2017-09-09T03:07:29.522Z,99105.59
2017-09-09T03:10:03.984Z,99109.72
2017-09-09T03:12:38.752Z,99109.06
2017-09-09T03:15:13.377Z,99099.65
2017-09-09T03:17:48.173Z,99105.25
2017-09-09T03:20:22.876Z,99101.35
2017-09-09T03:22:57.760Z,99097.95
2017-09-09T03:25:32.532Z,99095.61
2017-09-09T03:28:07.469Z,99092.35
2017-09-09T03:30:42.321Z,99098.54
2017-09-09T03:33:17.271Z,99094.17
2017-09-09T03:35:52.071Z,99094.48
2017-09-09T03:38:27.921Z,99095.81
2017-09-09T03:41:02.536Z,99082.58
2017-09-09T03:43:37.179Z,99084.64
2017-09-09T03:46:11.984Z,99079.77
2017-09-09T03:48:46.587Z,99076.38
2017-09-09T03:51:21.328Z,99081.78
2017-09-09T03:53:56.200Z,99069.23
2017-09-09T03:56:31.032Z,99078.28
2017-09-09T03:59:06.901Z,99080.37
2017-09-09T04:01:41.493Z,99072.02
2017-09-09T04:04:16.208Z,99069.75
2017-09-09T04:06:50.936Z,99056.44
2017-09-09T04:09:25.509Z,99062.97
2017-09-09T04:12:00.504Z,99058.52
2017-09-09T04:14:35.252Z,99060.17
2017-09-09T04:17:10.084Z,99060.07
2017-09-09T04:19:45.779Z,99058.97
2017-09-09T04:22:20.391Z,99059.30
2017-09-09T04:24:55.097Z,99052.08
2017-09-09T04:27:29.918Z,99047.26
2017-09-09T04:30:04.583Z,99046.42
2017-09-09T04:32:39.254Z,99049.97
2017-09-09T04:35:14.023Z,99048.35
2017-09-09T04:37:49.233Z,99044.74
2017-09-09T04:40:24.885Z,99049.88
2017-09-09T04:42:59.845Z,99042.34
2017-09-09T04:45:35.755Z,99045.72
2017-09-09T04:48:10.395Z,99041.24
2017-09-09T04:50:45.196Z,99044.11
2017-09-09T04:53:19.924Z,99040.93
2017-09-09T04:55:54.560Z,99035.45
2017-09-09T04:58:29.280Z,99032.33
2017-09-09T05:01:04.889Z,99037.88
2017-09-09T05:03:39.596Z,99038.09
2017-09-09T05:06:14.324Z,99030.03
2017-09-09T05:08:49.147Z,99034.33
2017-09-09T05:11:24.737Z,99044.38
2017-09-09T05:13:59.796Z,99043.11
2017-09-09T05:16:34.527Z,99037.95
2017-09-09T05:19:08.929Z,99032.59
2017-09-09T05:21:43.557Z,99029.88
2017-09-09T05:24:18.281Z,99023.70
2017-09-09T05:26:53.031Z,99028.70
2017-09-09T05:29:27.635Z,99018.98
2017-09-09T05:32:02.661Z,99016.70
2017-09-09T05:34:37.325Z,99017.02
2017-09-09T05:37:12.129Z,99014.61
2017-09-09T05:39:46.929Z,99005.78
2017-09-09T05:42:22.004Z,99003.34
2017-09-09T05:44:57.305Z,99002.20
2017-09-09T05:47:32.512Z,99000.22
2017-09-09T05:50:06.924Z,98995.52
2017-09-09T05:52:41.827Z,98993.44
2017-09-09T05:55:16.848Z,98996.58
2017-09-09T05:57:52.005Z,98997.20
2017-09-09T06:00:27.051Z,98996.33
2017-09-09T06:03:02.006Z,99003.89
2017-09-09T06:05:36.728Z,98990.03
2017-09-09T06:08:11.767Z,98985.78
2017-09-09T06:10:46.487Z,98983.87
2017-09-09T06:13:21.251Z,98974.63
2017-09-09T06:15:56.167Z,98971.69
2017-09-09T06:18:30.670Z,98968.78
2017-09-09T06:21:05.756Z,98964.28
2017-09-09T06:23:40.540Z,98972.98
2017-09-09T06:26:15.229Z,98969.38
2017-09-09T06:28:50.064Z,98976.31
2017-09-09T06:31:24.700Z,98975.56
2017-09-09T06:33:59.656Z,98977.58
2017-09-09T06:36:34.400Z,98979.49
2017-09-09T06:39:09.328Z,98983.30
2017-09-09T06:41:44.082Z,98975.17
2017-09-09T06:44:18.903Z,98976.82
2017-09-09T06:46:53.806Z,98981.52
2017-09-09T06:49:28.736Z,98975.50
2017-09-09T06:52:03.541Z,98978.77
2017-09-09T06:54:38.273Z,98983.23
2017-09-09T06:57:13.028Z,98979.63
2017-09-09T06:59:48.132Z,98985.01
2017-09-09T07:02:22.933Z,98983.45
2017-09-09T07:04:57.737Z,98971.86
2017-09-09T07:07:32.670Z,98982.53
2017-09-09T07:10:07.702Z,98982.10
2017-09-09T07:12:42.595Z,98983.66
2017-09-09T07:15:17.437Z,98981.73
2017-09-09T07:17:51.951Z,98974.73
2017-09-09T07:20:26.600Z,98981.20
2017-09-09T07:23:01.308Z,98975.06
2017-09-09T07:25:37.181Z,98981.58
2017-09-09T07:28:11.705Z,98979.56
2017-09-09T07:30:46.744Z,98979.67
2017-09-09T07:33:21.528Z,98975.68
2017-09-09T07:35:57.116Z,98970.12
2017-09-09T07:38:31.798Z,98975.93
2017-09-09T07:41:06.457Z,98982.21
2017-09-09T07:43:41.199Z,98984.80
2017-09-09T07:46:15.948Z,98992.35
2017-09-09T07:48:50.741Z,99010.63
2017-09-09T07:51:25.465Z,99018.06
2017-09-09T07:54:00.196Z,99016.83
2017-09-09T07:56:34.822Z,99016.50
2017-09-09T07:59:09.777Z,99020.33
2017-09-09T08:01:44.280Z,99026.88
2017-09-09T08:04:19.326Z,99029.11
2017-09-09T08:06:54.884Z,99029.77
2017-09-09T08:09:29.865Z,99032.23
2017-09-09T08:12:04.735Z,99026.20
2017-09-09T08:14:39.633Z,99026.63
2017-09-09T08:17:14.395Z,99025.42
2017-09-09T08:19:49.082Z,99037.35
2017-09-09T08:22:23.805Z,99039.06
2017-09-09T08:24:58.297Z,99033.69
2017-09-09T08:27:33.798Z,99030.33
2017-09-09T08:30:08.826Z,99031.66
2017-09-09T08:32:43.350Z,99033.25
2017-09-09T08:35:18.311Z,99041.34
2017-09-09T08:37:52.952Z,99045.78
2017-09-09T08:40:27.600Z,99049.69
2017-09-09T08:43:04.635Z,99063.02
2017-09-09T08:45:39.041Z,99063.56
2017-09-09T08:51:23.658Z,99069.31
2017-09-09T08:53:58.264Z,99067.69
2017-09-09T08:56:33.057Z,99076.33
2017-09-09T08:59:08.101Z,99075.24
2017-09-09T09:01:43.296Z,99069.16
2017-09-09T09:04:17.825Z,99068.00
2017-09-09T09:06:52.733Z,99067.33
2017-09-09T09:09:27.636Z,99061.59
2017-09-09T09:12:02.464Z,99057.38
2017-09-09T09:14:37.826Z,99068.12
2017-09-09T09:17:12.620Z,99062.78
2017-09-09T09:19:47.477Z,99058.81
2017-09-09T09:22:22.090Z,99060.83
2017-09-09T09:24:57.026Z,99063.57
2017-09-09T09:27:31.436Z,99059.16
2017-09-09T09:30:06.667Z,99063.19
2017-09-09T09:32:41.808Z,99063.75
2017-09-09T09:35:16.334Z,99058.93
2017-09-09T09:37:51.020Z,99059.53
2017-09-09T09:40:25.775Z,99056.34
2017-09-09T09:43:00.640Z,99056.61
2017-09-09T09:45:35.365Z,99057.95
2017-09-09T09:48:10.119Z,99048.61
2017-09-09T09:50:45.305Z,99047.18
2017-09-09T09:53:20.246Z,99056.91
2017-09-09T09:55:55.176Z,99058.98
2017-09-09T09:58:29.981Z,99057.35
2017-09-09T10:01:04.995Z,99055.11
2017-09-09T10:03:39.880Z,99060.89
2017-09-09T10:06:14.614Z,99065.03
2017-09-09T10:08:49.364Z,99065.67
2017-09-09T10:11:24.260Z,99066.94
2017-09-09T10:13:59.096Z,99064.81
2017-09-09T10:16:34.021Z,99061.93
2017-09-09T10:19:08.869Z,99070.47
2017-09-09T10:21:43.492Z,99078.80
2017-09-09T10:24:19.037Z,99066.88
2017-09-09T10:26:53.883Z,99065.02
2017-09-09T10:29:28.612Z,99062.86
2017-09-09T10:32:03.374Z,99062.04
2017-09-09T10:34:38.183Z,99052.79
2017-09-09T10:37:13.100Z,99054.95
2017-09-09T10:39:47.935Z,99060.61
2017-09-09T10:42:22.768Z,99050.18
2017-09-09T10:44:57.677Z,99055.23
2017-09-09T10:47:32.445Z,99069.33
2017-09-09T10:50:07.197Z,99071.17
2017-09-09T10:52:43.413Z,99068.68
2017-09-09T10:55:18.033Z,99079.12
2017-09-09T10:57:52.756Z,99070.16
2017-09-09T11:00:27.563Z,99070.54
2017-09-09T11:03:02.270Z,99067.02
2017-09-09T11:05:37.381Z,99056.83
2017-09-09T11:08:12.598Z,99062.48
2017-09-09T11:10:47.248Z,99069.27
2017-09-09T11:13:22.083Z,99063.86
2017-09-09T11:15:56.977Z,99071.83
2017-09-09T11:18:31.519Z,99067.30
2017-09-09T11:21:06.330Z,99086.28
2017-09-09T11:23:41.042Z,99072.00
2017-09-09T11:26:15.753Z,99072.02
2017-09-09T11:28:50.817Z,99081.66
2017-09-09T11:31:25.669Z,99072.95
2017-09-09T11:34:00.341Z,99079.34
2017-09-09T11:36:34.864Z,99083.21
2017-09-09T11:39:09.825Z,99089.14
2017-09-09T11:41:44.783Z,99088.15
2017-09-09T11:44:19.659Z,99081.72
2017-09-09T11:46:54.449Z,99092.27
2017-09-09T11:49:29.415Z,99097.30
2017-09-09T11:52:04.319Z,99103.13
2017-09-09T11:54:39.056Z,99114.88
2017-09-09T11:57:13.438Z,99114.12
2017-09-09T11:59:48.504Z,99123.20
2017-09-09T12:02:23.401Z,99125.32
2017-09-09T12:04:58.216Z,99130.20
2017-09-09T12:07:33.035Z,99134.90
2017-09-09T12:10:08.248Z,99137.35
2017-09-09T12:12:42.797Z,99140.48
2017-09-09T12:15:18.161Z,99146.03
2017-09-09T12:17:53.093Z,99151.48
2017-09-09T12:20:27.821Z,99152.67
2017-09-09T12:23:02.582Z,99159.48
2017-09-09T12:25:37.364Z,99169.05
2017-09-09T12:28:12.385Z,99187.97
2017-09-09T12:30:47.071Z,99197.98
2017-09-09T12:33:21.856Z,99195.16
2017-09-09T12:35:56.685Z,99197.27
2017-09-09T12:38:31.641Z,99200.02
2017-09-09T12:41:06.644Z,99191.96
2017-09-09T12:43:41.570Z,99200.55
2017-09-09T12:46:16.357Z,99204.66
2017-09-09T12:48:51.277Z,99199.97
2017-09-09T12:51:26.009Z,99209.77
2017-09-09T12:54:00.704Z,99217.92
2017-09-09T12:56:35.688Z,99220.06
2017-09-09T12:59:10.639Z,99224.69
2017-09-09T13:01:45.521Z,99219.63
2017-09-09T13:04:20.276Z,99233.02
2017-09-09T13:06:55.019Z,99223.54
2017-09-09T13:09:29.729Z,99228.60
2017-09-09T13:12:04.485Z,99226.94
2017-09-09T13:14:39.212Z,99217.22
2017-09-09T13:17:14.255Z,99214.94
2017-09-09T13:19:49.286Z,99216.01
2017-09-09T13:22:23.949Z,99220.05
2017-09-09T13:24:58.752Z,99218.78
2017-09-09T13:27:33.308Z,99218.91
2017-09-09T13:30:08.449Z,99212.79
2017-09-09T13:32:43.010Z,99227.69
2017-09-09T13:35:17.771Z,99228.88
2017-09-09T13:37:52.565Z,99239.19
2017-09-09T13:40:27.202Z,99238.00
2017-09-09T13:43:02.117Z,99233.55
2017-09-09T13:45:36.904Z,99242.62
2017-09-09T13:48:11.795Z,99250.23
2017-09-09T13:50:46.532Z,99251.30
2017-09-09T13:53:21.655Z,99256.89
2017-09-09T13:55:56.440Z,99255.45
2017-09-09T13:58:31.268Z,99257.13
2017-09-09T14:01:06.020Z,99260.41
2017-09-09T14:03:40.571Z,99267.63
2017-09-09T14:06:15.864Z,99272.62
2017-09-09T14:08:50.984Z,99264.00
2017-09-09T14:11:25.841Z,99254.51
2017-09-09T14:14:00.964Z,99255.66
2017-09-09T14:16:35.785Z,99255.02
2017-09-09T14:19:10.692Z,99255.64
2017-09-09T14:21:45.776Z,99255.80
2017-09-09T14:24:20.296Z,99249.05
2017-09-09T14:26:55.143Z,99251.46
2017-09-09T14:29:30.312Z,99247.26
2017-09-09T14:32:05.260Z,99246.40
2017-09-09T14:34:40.084Z,99260.34
2017-09-09T14:37:15.237Z,99254.72
2017-09-09T14:39:49.672Z,99267.36
2017-09-09T14:42:24.673Z,99268.88
2017-09-09T14:44:59.583Z,99272.62
2017-09-09T14:47:34.273Z,99272.30
2017-09-09T14:50:08.903Z,99277.73
2017-09-09T14:52:43.630Z,99286.84
2017-09-09T14:55:20.521Z,99290.52
2017-09-09T14:57:55.120Z,99286.84
2017-09-09T15:00:29.993Z,99288.00
2017-09-09T15:03:04.588Z,99283.17
2017-09-09T15:05:39.219Z,99284.78
2017-09-09T15:08:14.058Z,99288.98
2017-09-09T15:10:49.083Z,99288.46
2017-09-09T15:13:23.686Z,99290.27
2017-09-09T15:15:58.808Z,99296.55
2017-09-09T15:18:33.942Z,99302.75
2017-09-09T15:21:08.724Z,99306.66
2017-09-09T15:23:43.559Z,99313.49
2017-09-09T15:26:18.744Z,99322.72
2017-09-09T15:28:53.444Z,99317.94
2017-09-09T15:31:28.268Z,99318.75
2017-09-09T15:34:03.272Z,99320.61
2017-09-09T15:36:38.247Z,99322.30
2017-09-09T15:39:12.968Z,99329.85
2017-09-09T15:41:47.524Z,99330.96
2017-09-09T15:44:22.311Z,99335.42
2017-09-09T15:46:56.828Z,99336.14
2017-09-09T15:49:31.652Z,99328.74
2017-09-09T15:52:06.296Z,99341.02
2017-09-09T15:54:41.201Z,99344.27
2017-09-09T15:57:16.148Z,99351.33
2017-09-09T15:59:51.131Z,99352.87
2017-09-09T16:02:25.952Z,99359.83
2017-09-09T16:05:00.639Z,99362.32
2017-09-09T16:07:35.644Z,99362.55
2017-09-09T16:10:10.671Z,99356.97
2017-09-09T16:12:46.252Z,99359.33
2017-09-09T16:15:21.130Z,99372.95
2017-09-09T16:17:55.960Z,99369.23
2017-09-09T16:20:30.793Z,99371.50
2017-09-09T16:23:05.517Z,99374.91
2017-09-09T16:25:40.344Z,99378.27
2017-09-09T16:28:15.173Z,99386.36
2017-09-09T16:30:49.987Z,99380.83
2017-09-09T16:33:25.552Z,99381.13
2017-09-09T16:36:00.295Z,99381.13
2017-09-09T16:38:35.304Z,99394.67
2017-09-09T16:41:10.164Z,99403.81
2017-09-09T16:43:45.264Z,99404.21
2017-09-09T16:46:20.173Z,99390.17
2017-09-09T16:48:55.072Z,99395.76
2017-09-09T16:51:30.300Z,99395.66
2017-09-09T16:54:05.440Z,99390.11
2017-09-09T16:56:40.385Z,99392.45
2017-09-09T16:59:14.864Z,99397.74
2017-09-09T17:01:50.078Z,99407.33
2017-09-09T17:04:24.876Z,99408.23
2017-09-09T17:06:59.882Z,99399.41
2017-09-09T17:09:34.633Z,99394.84
2017-09-09T17:12:09.905Z,99394.84
2017-09-09T17:14:44.554Z,99396.37
2017-09-09T17:17:19.205Z,99404.81
2017-09-09T17:19:54.372Z,99406.36
2017-09-09T17:22:29.277Z,99402.08
2017-09-09T17:25:04.183Z,99404.05
2017-09-09T17:27:38.899Z,99405.04
2017-09-09T17:30:14.058Z,99402.68
2017-09-09T17:32:49.028Z,99411.64
2017-09-09T17:35:23.929Z,99420.48
2017-09-09T17:37:58.448Z,99415.39
2017-09-09T17:40:33.769Z,99423.31
2017-09-09T17:43:08.576Z,99427.98
2017-09-09T17:45:43.473Z,99435.34
2017-09-09T17:48:18.581Z,99442.52
2017-09-09T17:50:53.541Z,99444.15
2017-09-09T17:53:28.232Z,99457.65
2017-09-09T17:56:03.116Z,99451.92
2017-09-09T17:58:38.021Z,99466.84
2017-09-09T18:01:12.943Z,99476.83
2017-09-09T18:03:47.669Z,99481.34
2017-09-09T18:06:22.391Z,99480.14
2017-09-09T18:08:57.031Z,99486.52
2017-09-09T18:11:31.752Z,99494.87
2017-09-09T18:14:06.808Z,99500.94
2017-09-09T18:16:41.451Z,99496.59
2017-09-09T18:19:16.648Z,99496.66
2017-09-09T18:21:51.487Z,99504.23
2017-09-09T18:24:26.233Z,99504.92
2017-09-09T18:27:01.575Z,99502.21
2017-09-09T18:29:36.567Z,99501.88
2017-09-09T18:32:11.439Z,99499.30
2017-09-09T18:34:46.428Z,99507.61
2017-09-09T18:37:21.140Z,99505.68
2017-09-09T18:39:55.838Z,99517.05
2017-09-09T18:42:30.623Z,99527.23
2017-09-09T18:45:05.445Z,99523.76
2017-09-09T18:47:40.358Z,99524.47
2017-09-09T18:50:15.264Z,99535.87
2017-09-09T18:52:50.096Z,99542.41
2017-09-09T18:55:24.844Z,99541.89
2017-09-09T18:57:59.676Z,99544.13
2017-09-09T19:00:34.367Z,99545.69
2017-09-09T19:03:09.037Z,99543.50
2017-09-09T19:05:44.113Z,99548.31
2017-09-09T19:08:19.108Z,99546.28
2017-09-09T19:10:53.826Z,99551.20
2017-09-09T19:13:29.432Z,99545.47
2017-09-09T19:16:04.305Z,99554.97
2017-09-09T19:18:39.349Z,99555.22
2017-09-09T19:21:14.557Z,99550.25
2017-09-09T19:23:48.897Z,99559.28
2017-09-09T19:26:23.743Z,99558.36
2017-09-09T19:28:58.632Z,99550.74
2017-09-09T19:31:33.664Z,99552.59
2017-09-09T19:34:08.430Z,99559.77
2017-09-09T19:36:43.255Z,99558.45
2017-09-09T19:39:18.200Z,99560.41
2017-09-09T19:41:53.032Z,99567.75
2017-09-09T19:44:27.844Z,99577.00
2017-09-09T19:47:02.668Z,99575.88
2017-09-09T19:49:37.368Z,99580.25
2017-09-09T19:52:12.113Z,99577.39
2017-09-09T19:54:46.977Z,99584.63
2017-09-09T19:57:21.805Z,99588.83
2017-09-09T19:59:56.628Z,99589.76
2017-09-09T20:02:31.438Z,99587.69
2017-09-09T20:05:06.288Z,99597.05
2017-09-09T20:07:41.240Z,99586.43
2017-09-09T20:10:16.155Z,99586.27
2017-09-09T20:12:50.989Z,99596.33
2017-09-09T20:15:25.588Z,99604.21
2017-09-09T20:18:00.475Z,99602.20
2017-09-09T20:20:35.280Z,99604.23
2017-09-09T20:23:09.804Z,99605.61
2017-09-09T20:25:44.751Z,99611.63
2017-09-09T20:28:19.568Z,99610.25
2017-09-09T20:30:54.709Z,99611.30
2017-09-09T20:33:29.523Z,99607.39
2017-09-09T20:36:04.461Z,99620.54
2017-09-09T20:38:39.365Z,99621.83
2017-09-09T20:41:14.409Z,99623.62
2017-09-09T20:43:49.592Z,99619.45
2017-09-09T20:46:24.540Z,99621.40
2017-09-09T20:48:59.421Z,99623.61
2017-09-09T20:51:34.389Z,99623.98
2017-09-09T20:54:08.949Z,99622.11
2017-09-09T20:56:43.960Z,99623.48
2017-09-09T20:59:18.859Z,99623.22
2017-09-09T21:01:53.884Z,99629.05
2017-09-09T21:04:28.305Z,99631.39
2017-09-09T21:07:03.275Z,99633.80
2017-09-09T21:09:38.395Z,99632.79
2017-09-09T21:12:13.364Z,99639.01
2017-09-09T21:14:48.507Z,99641.59
2017-09-09T21:17:23.240Z,99635.30
2017-09-09T21:19:58.188Z,99637.80
2017-09-09T21:22:33.003Z,99637.69
2017-09-09T21:25:07.905Z,99640.23
2017-09-09T21:27:42.850Z,99647.00
2017-09-09T21:30:17.536Z,99649.43
2017-09-09T21:32:52.375Z,99652.16
2017-09-09T21:35:27.123Z,99662.27
2017-09-09T21:38:01.943Z,99659.03
2017-09-09T21:40:36.895Z,99663.84
2017-09-09T21:43:11.920Z,99665.38
2017-09-09T21:45:46.998Z,99665.32
2017-09-09T21:48:21.743Z,99665.26
2017-09-09T21:50:56.731Z,99667.94
2017-09-09T21:53:31.857Z,99672.42
2017-09-09T21:56:06.812Z,99667.81
2017-09-09T21:58:41.892Z,99673.48
2017-09-09T22:01:17.006Z,99680.37
2017-09-09T22:03:52.632Z,99677.97
2017-09-09T22:06:27.115Z,99679.33
2017-09-09T22:09:02.077Z,99679.56
2017-09-09T22:11:36.734Z,99675.06
2017-09-09T22:14:11.584Z,99676.27
2017-09-09T22:16:46.335Z,99676.15
2017-09-09T22:19:21.437Z,99677.62
2017-09-09T22:21:56.219Z,99678.98
2017-09-09T22:24:31.363Z,99677.42
2017-09-09T22:27:06.284Z,99677.80
2017-09-09T22:29:41.204Z,99689.36
2017-09-09T22:32:16.067Z,99687.30
2017-09-09T22:34:50.881Z,99693.53
2017-09-09T22:37:27.160Z,99685.31
2017-09-09T22:40:01.862Z,99688.41
2017-09-09T22:42:36.706Z,99689.56
2017-09-09T22:45:11.555Z,99686.49
2017-09-09T22:47:46.785Z,99687.72
2017-09-09T22:50:21.814Z,99694.59
2017-09-09T22:52:56.983Z,99691.50
2017-09-09T22:55:31.964Z,99690.76
2017-09-09T22:58:07.076Z,99692.42
2017-09-09T23:00:41.973Z,99697.19
2017-09-09T23:03:16.429Z,99696.50
2017-09-09T23:05:51.418Z,99696.09
2017-09-09T23:08:26.441Z,99694.64
2017-09-09T23:11:01.455Z,99696.67
2017-09-09T23:13:36.732Z,99698.88
2017-09-09T23:16:11.563Z,99703.92
2017-09-09T23:18:46.524Z,99703.77
2017-09-09T23:21:21.493Z,99709.41
2017-09-09T23:23:56.508Z,99703.03
2017-09-09T23:26:31.327Z,99702.89
2017-09-09T23:29:06.336Z,99704.68
2017-09-09T23:31:41.171Z,99703.44
2017-09-09T23:34:16.100Z,99707.81
2017-09-09T23:36:50.733Z,99707.74
2017-09-09T23:39:25.744Z,99707.14
2017-09-09T23:42:00.552Z,99703.48
2017-09-09T23:44:35.884Z,99708.39
2017-09-09T23:47:10.352Z,99707.41
2017-09-09T23:49:45.487Z,99714.87
2017-09-09T23:52:20.444Z,99719.39
2017-09-09T23:54:55.239Z,99720.39
2017-09-09T23:57:30.548Z,99720.59
